Time,TemperatureF,DewpointF,PressureIn,WindDirection,WindDirectionDegrees,WindSpeedMPH,WindSpeedGustMPH,Humidity,HourlyPrecipIn,Conditions,Clouds,dailyrainin,SoftwareType,DateUTC
2013-03-29 00:13:00,37.3,31.0,30.20,West,265,5.0,10.0,79,0.00,,,0.02,weatherlink.com 1.10,2013-03-29 04:13:00,
2013-03-29 00:28:00,37.3,31.0,30.20,WSW,245,4.0,7.0,79,0.00,,,0.02,weatherlink.com 1.10,2013-03-29 04:28:00,
2013-03-29 00:43:00,37.1,31.0,30.20,WSW,247,4.0,8.0,80,0.00,,,0.02,weatherlink.com 1.10,2013-03-29 04:43:00,
2013-03-29 00:58:00,37.0,31.0,30.20,WSW,253,4.0,5.0,80,0.00,,,0.02,weatherlink.com 1.10,2013-03-29 04:58:00,
2013-03-29 01:13:00,36.9,32.0,30.20,WSW,238,3.0,7.0,81,0.00,,,0.02,weatherlink.com 1.10,2013-03-29 05:13:00,
2013-03-29 01:28:00,37.0,31.0,30.20,WSW,251,4.0,11.0,80,0.00,,,0.02,weatherlink.com 1.10,2013-03-29 05:28:00,
2013-03-29 01:43:00,36.8,32.0,30.20,WSW,252,4.0,6.0,81,0.00,,,0.02,weatherlink.com 1.10,2013-03-29 05:43:00,
2013-03-29 01:58:00,36.7,31.0,30.20,WSW,253,6.0,6.0,81,0.00,,,0.02,weatherlink.com 1.10,2013-03-29 05:58:00,
2013-03-29 02:13:00,36.6,31.0,30.19,WSW,249,4.0,7.0,81,0.00,,,0.02,weatherlink.com 1.10,2013-03-29 06:13:00,
2013-03-29 02:28:00,36.5,31.0,30.19,WSW,257,5.0,8.0,81,0.00,,,0.02,weatherlink.com 1.10,2013-03-29 06:28:00,
2013-03-29 02:43:00,36.4,31.0,30.19,WSW,255,6.0,8.0,81,0.00,,,0.02,weatherlink.com 1.10,2013-03-29 06:43:00,
2013-03-29 02:58:00,36.4,31.0,30.19,West,259,3.0,9.0,82,0.00,,,0.02,weatherlink.com 1.10,2013-03-29 06:58:00,
2013-03-29 03:13:00,36.4,31.0,30.19,West,271,6.0,7.0,82,0.00,,,0.02,weatherlink.com 1.10,2013-03-29 07:13:00,
2013-03-29 03:28:00,36.3,31.0,30.19,WSW,242,5.0,8.0,82,0.00,,,0.02,weatherlink.com 1.10,2013-03-29 07:28:00,
2013-03-29 03:43:00,36.3,31.0,30.19,West,263,4.0,10.0,82,0.00,,,0.02,weatherlink.com 1.10,2013-03-29 07:43:00,
2013-03-29 03:58:00,36.2,31.0,30.18,West,262,3.0,7.0,82,0.00,,,0.02,weatherlink.com 1.10,2013-03-29 07:58:00,
2013-03-29 04:13:00,36.2,31.0,30.18,WSW,246,2.0,8.0,82,0.00,,,0.02,weatherlink.com 1.10,2013-03-29 08:13:00,
2013-03-29 04:28:00,36.0,31.0,30.18,West,260,0.0,5.0,83,0.00,,,0.02,weatherlink.com 1.10,2013-03-29 08:28:00,
2013-03-29 04:43:00,35.9,31.0,30.18,West,262,1.0,5.0,83,0.00,,,0.02,weatherlink.com 1.10,2013-03-29 08:43:00,
2013-03-29 04:58:00,35.8,31.0,30.18,WSW,256,0.0,5.0,83,0.00,,,0.02,weatherlink.com 1.10,2013-03-29 08:58:00,
2013-03-29 05:13:00,35.7,31.0,30.18,WSW,241,3.0,5.0,84,0.00,,,0.02,weatherlink.com 1.10,2013-03-29 09:13:00,
2013-03-29 05:28:00,35.7,31.0,30.18,WSW,239,3.0,6.0,84,0.00,,,0.02,weatherlink.com 1.10,2013-03-29 09:28:00,
2013-03-29 05:43:00,35.7,31.0,30.18,WSW,239,1.0,5.0,84,0.00,,,0.02,weatherlink.com 1.10,2013-03-29 09:43:00,
2013-03-29 05:58:00,35.5,31.0,30.18,WSW,239,3.0,5.0,84,0.00,,,0.02,weatherlink.com 1.10,2013-03-29 09:58:00,
2013-03-29 06:14:00,35.5,31.0,30.19,WSW,239,4.0,6.0,85,0.00,,,0.02,weatherlink.com 1.10,2013-03-29 10:14:00,
2013-03-29 06:28:00,35.5,31.0,30.18,WSW,241,3.0,6.0,85,0.00,,,0.02,weatherlink.com 1.10,2013-03-29 10:28:00,
2013-03-29 06:43:00,35.4,31.0,30.19,WSW,254,3.0,7.0,85,0.00,,,0.02,weatherlink.com 1.10,2013-03-29 10:43:00,
2013-03-29 06:58:00,35.4,31.0,30.19,SW,232,4.0,7.0,85,0.00,,,0.02,weatherlink.com 1.10,2013-03-29 10:58:00,
2013-03-29 07:13:00,35.3,31.0,30.19,WSW,254,3.0,8.0,85,0.00,,,0.02,weatherlink.com 1.10,2013-03-29 11:13:00,
2013-03-29 07:29:00,35.2,31.0,30.19,WSW,244,0.0,6.0,86,0.00,,,0.02,weatherlink.com 1.10,2013-03-29 11:29:00,
2013-03-29 07:44:00,35.3,32.0,30.18,WSW,247,2.0,6.0,86,0.00,,,0.02,weatherlink.com 1.10,2013-03-29 11:44:00,
2013-03-29 07:59:00,35.4,32.0,30.18,WSW,247,3.0,5.0,86,0.00,,,0.02,weatherlink.com 1.10,2013-03-29 11:59:00,
2013-03-29 08:14:00,35.7,32.0,30.19,WSW,249,0.0,5.0,86,0.00,,,0.02,weatherlink.com 1.10,2013-03-29 12:14:00,
2013-03-29 08:29:00,36.1,32.0,30.19,WSW,257,6.0,7.0,85,0.00,,,0.02,weatherlink.com 1.10,2013-03-29 12:29:00,
2013-03-29 08:44:00,36.1,32.0,30.19,West,262,5.0,9.0,84,0.00,,,0.02,weatherlink.com 1.10,2013-03-29 12:44:00,
2013-03-29 08:59:00,36.3,32.0,30.19,West,260,2.0,9.0,84,0.00,,,0.02,weatherlink.com 1.10,2013-03-29 12:59:00,
2013-03-29 09:14:00,36.5,34.0,30.19,West,266,3.0,9.0,89,0.00,,,0.00,weatherlink.com 1.10,2013-03-29 13:14:00,
2013-03-29 09:29:00,36.7,32.0,30.19,West,276,7.0,9.0,84,0.00,,,0.00,weatherlink.com 1.10,2013-03-29 13:29:00,
2013-03-29 09:44:00,37.0,32.0,30.19,West,271,10.0,11.0,83,0.00,,,0.00,weatherlink.com 1.10,2013-03-29 13:44:00,
2013-03-29 09:59:00,37.1,32.0,30.19,SW,235,10.0,14.0,81,0.00,,,0.00,weatherlink.com 1.10,2013-03-29 13:59:00,
2013-03-29 10:14:00,37.7,32.0,30.19,WNW,287,10.0,14.0,81,0.00,,,0.00,weatherlink.com 1.10,2013-03-29 14:14:00,
2013-03-29 10:29:00,38.0,32.0,30.19,WNW,289,6.0,14.0,80,0.00,,,0.00,weatherlink.com 1.10,2013-03-29 14:29:00,
2013-03-29 10:44:00,38.5,32.0,30.19,WNW,286,9.0,14.0,78,0.00,,,0.00,weatherlink.com 1.10,2013-03-29 14:44:00,
2013-03-29 10:59:00,38.8,33.0,30.19,West,272,11.0,13.0,78,0.00,,,0.00,weatherlink.com 1.10,2013-03-29 14:59:00,
2013-03-29 11:14:00,39.3,32.0,30.19,WNW,295,9.0,12.0,76,0.00,,,0.00,weatherlink.com 1.10,2013-03-29 15:14:00,
2013-03-29 11:29:00,39.7,32.0,30.19,WSW,251,7.0,13.0,75,0.00,,,0.00,weatherlink.com 1.10,2013-03-29 15:29:00,
2013-03-29 11:44:00,40.1,32.0,30.18,West,265,7.0,13.0,74,0.00,,,0.00,weatherlink.com 1.10,2013-03-29 15:44:00,
2013-03-29 11:59:00,40.5,32.0,30.18,West,270,9.0,14.0,73,0.00,,,0.00,weatherlink.com 1.10,2013-03-29 15:59:00,
2013-03-29 12:14:00,40.7,32.0,30.18,WNW,296,9.0,15.0,71,0.00,,,0.00,weatherlink.com 1.10,2013-03-29 16:14:00,
2013-03-29 12:29:00,40.7,32.0,30.17,WNW,297,6.0,15.0,72,0.00,,,0.00,weatherlink.com 1.10,2013-03-29 16:29:00,
2013-03-29 12:44:00,40.6,33.0,30.17,WNW,299,8.0,15.0,73,0.00,,,0.00,weatherlink.com 1.10,2013-03-29 16:44:00,
2013-03-29 12:59:00,40.6,32.0,30.17,WNW,286,9.0,16.0,72,0.00,,,0.00,weatherlink.com 1.10,2013-03-29 16:59:00,
2013-03-29 13:14:00,40.6,32.0,30.17,WNW,303,10.0,12.0,72,0.00,,,0.00,weatherlink.com 1.10,2013-03-29 17:14:00,
2013-03-29 13:29:00,40.8,32.0,30.17,NW,310,7.0,14.0,72,0.00,,,0.00,weatherlink.com 1.10,2013-03-29 17:29:00,
2013-03-29 13:44:00,41.5,32.0,30.16,NNW,339,6.0,16.0,68,0.00,,,0.00,weatherlink.com 1.10,2013-03-29 17:44:00,
2013-03-29 13:59:00,42.3,31.0,30.16,NNW,346,9.0,13.0,65,0.00,,,0.00,weatherlink.com 1.10,2013-03-29 17:59:00,
2013-03-29 14:14:00,42.4,32.0,30.15,NW,326,7.0,12.0,67,0.00,,,0.00,weatherlink.com 1.10,2013-03-29 18:14:00,
2013-03-29 14:29:00,42.7,32.0,30.14,WNW,303,5.0,14.0,65,0.00,,,0.00,weatherlink.com 1.10,2013-03-29 18:29:00,
2013-03-29 14:44:00,44.1,33.0,30.14,North,349,5.0,12.0,65,0.00,,,0.00,weatherlink.com 1.10,2013-03-29 18:44:00,
2013-03-29 14:59:00,44.5,32.0,30.14,NW,315,7.0,14.0,62,0.00,,,0.00,weatherlink.com 1.10,2013-03-29 18:59:00,
2013-03-29 15:14:00,44.4,32.0,30.13,NW,306,7.0,13.0,61,0.00,,,0.00,weatherlink.com 1.10,2013-03-29 19:14:00,
2013-03-29 15:29:00,44.5,32.0,30.13,WNW,290,5.0,11.0,62,0.00,,,0.00,weatherlink.com 1.10,2013-03-29 19:29:00,
2013-03-29 15:45:00,44.6,32.0,30.13,NNW,328,6.0,10.0,62,0.00,,,0.00,weatherlink.com 1.10,2013-03-29 19:45:00,
2013-03-29 16:00:00,44.7,33.0,30.12,North,4,8.0,12.0,63,0.00,,,0.00,weatherlink.com 1.10,2013-03-29 20:00:00,
2013-03-29 16:15:00,45.2,31.0,30.12,NW,326,4.0,15.0,59,0.00,,,0.00,weatherlink.com 1.10,2013-03-29 20:15:00,
2013-03-29 16:30:00,46.3,30.0,30.12,NW,307,8.0,21.0,54,0.00,,,0.00,weatherlink.com 1.10,2013-03-29 20:30:00,
2013-03-29 16:45:00,46.5,30.0,30.12,WNW,295,19.0,22.0,53,0.00,,,0.00,weatherlink.com 1.10,2013-03-29 20:45:00,
2013-03-29 17:00:00,45.6,30.0,30.12,NW,324,8.0,18.0,54,0.00,,,0.00,weatherlink.com 1.10,2013-03-29 21:00:00,
2013-03-29 17:15:00,45.0,30.0,30.12,NNW,331,7.0,18.0,55,0.00,,,0.00,weatherlink.com 1.10,2013-03-29 21:15:00,
2013-03-29 17:30:00,45.4,30.0,30.12,NW,325,12.0,19.0,55,0.00,,,0.00,weatherlink.com 1.10,2013-03-29 21:30:00,
2013-03-29 17:45:00,44.9,30.0,30.12,NNW,335,7.0,14.0,57,0.00,,,0.00,weatherlink.com 1.10,2013-03-29 21:45:00,
2013-03-29 18:00:00,44.3,30.0,30.13,NNW,348,10.0,13.0,57,0.00,,,0.00,weatherlink.com 1.10,2013-03-29 22:00:00,
2013-03-29 18:15:00,44.1,30.0,30.13,NW,312,11.0,15.0,59,0.00,,,0.00,weatherlink.com 1.10,2013-03-29 22:15:00,
2013-03-29 18:30:00,43.5,31.0,30.13,NNW,345,10.0,13.0,61,0.00,,,0.00,weatherlink.com 1.10,2013-03-29 22:30:00,
2013-03-29 18:45:00,43.3,30.0,30.13,North,11,3.0,10.0,61,0.00,,,0.00,weatherlink.com 1.10,2013-03-29 22:45:00,
2013-03-29 19:00:00,42.8,30.0,30.14,North,4,1.0,8.0,62,0.00,,,0.00,weatherlink.com 1.10,2013-03-29 23:00:00,
2013-03-29 19:15:00,42.2,30.0,30.14,North,359,3.0,8.0,62,0.00,,,0.00,weatherlink.com 1.10,2013-03-29 23:15:00,
2013-03-29 19:30:00,41.3,30.0,30.14,North,354,0.0,6.0,64,0.00,,,0.00,weatherlink.com 1.10,2013-03-29 23:30:00,
2013-03-29 19:45:00,40.6,30.0,30.14,North,354,0.0,5.0,65,0.00,,,0.00,weatherlink.com 1.10,2013-03-29 23:45:00,
2013-03-29 20:00:00,40.1,29.0,30.14,North,354,0.0,3.0,66,0.00,,,0.00,weatherlink.com 1.10,2013-03-30 00:00:00,
2013-03-29 20:15:00,40.0,29.0,30.14,North,354,0.0,3.0,66,0.00,,,0.00,weatherlink.com 1.10,2013-03-30 00:15:00,
2013-03-29 20:30:00,39.8,30.0,30.14,North,354,0.0,0.0,67,0.00,,,0.00,weatherlink.com 1.10,2013-03-30 00:30:00,
2013-03-29 20:45:00,39.7,29.0,30.15,North,354,0.0,1.0,67,0.00,,,0.00,weatherlink.com 1.10,2013-03-30 00:45:00,
2013-03-29 21:00:00,39.5,29.0,30.15,North,354,0.0,0.0,67,0.00,,,0.00,weatherlink.com 1.10,2013-03-30 01:00:00,
2013-03-29 21:15:00,39.1,29.0,30.15,North,354,0.0,0.0,67,0.00,,,0.00,weatherlink.com 1.10,2013-03-30 01:15:00,
2013-03-29 21:30:00,38.9,28.0,30.15,North,354,0.0,0.0,66,0.00,,,0.00,weatherlink.com 1.10,2013-03-30 01:30:00,
2013-03-29 21:45:00,38.9,28.0,30.16,North,354,0.0,0.0,65,0.00,,,0.00,weatherlink.com 1.10,2013-03-30 01:45:00,
2013-03-29 22:00:00,38.2,27.0,30.16,North,354,0.0,0.0,65,0.00,,,0.00,weatherlink.com 1.10,2013-03-30 02:00:00,
2013-03-29 22:15:00,37.4,27.0,30.16,North,354,1.0,1.0,67,0.00,,,0.00,weatherlink.com 1.10,2013-03-30 02:15:00,
2013-03-29 22:30:00,35.6,28.0,30.16,SW,218,7.0,8.0,74,0.00,,,0.00,weatherlink.com 1.10,2013-03-30 02:30:00,
2013-03-29 22:45:00,36.0,29.0,30.16,SW,223,6.0,8.0,76,0.00,,,0.00,weatherlink.com 1.10,2013-03-30 02:45:00,
2013-03-29 23:00:00,36.6,29.0,30.16,SW,222,4.0,8.0,74,0.00,,,0.00,weatherlink.com 1.10,2013-03-30 03:00:00,
2013-03-29 23:15:00,35.2,28.0,30.16,SW,221,4.0,5.0,76,0.00,,,0.00,weatherlink.com 1.10,2013-03-30 03:15:00,
2013-03-29 23:30:00,34.8,29.0,30.16,SW,221,3.0,5.0,78,0.00,,,0.00,weatherlink.com 1.10,2013-03-30 03:30:00,
2013-03-29 23:45:00,36.1,29.0,30.16,WSW,255,8.0,8.0,76,0.00,,,0.00,weatherlink.com 1.10,2013-03-30 03:45:00,